createdAt,value
2022-10-15T00:00:36.557Z,96.39
2022-10-15T00:03:03.322Z,96.58
2022-10-15T00:05:29.777Z,96.50
2022-10-15T00:07:56.299Z,96.56
2022-10-15T00:10:23.052Z,96.50
2022-10-15T00:12:49.695Z,96.72
2022-10-15T00:15:16.298Z,96.31
2022-10-15T00:17:42.766Z,96.43
2022-10-15T00:20:11.009Z,96.17
2022-10-15T00:22:37.845Z,96.13
2022-10-15T00:25:05.514Z,95.77
2022-10-15T00:27:31.957Z,96.10
2022-10-15T00:30:00.146Z,95.91
2022-10-15T00:32:26.965Z,95.88
2022-10-15T00:34:53.311Z,95.83
2022-10-15T00:37:21.011Z,96.06
2022-10-15T00:39:47.559Z,95.98
2022-10-15T00:42:14.431Z,95.75
2022-10-15T00:44:58.967Z,95.76
2022-10-15T00:47:35.461Z,96.19
2022-10-15T00:50:13.894Z,95.84
2022-10-15T00:53:12.887Z,95.68
2022-10-15T00:55:42.679Z,95.36
2022-10-15T01:00:45.042Z,95.49
2022-10-15T01:03:12.870Z,95.54
2022-10-15T01:05:40.182Z,95.65
2022-10-15T01:08:06.634Z,95.21
2022-10-15T01:10:45.903Z,94.90
2022-10-15T01:13:24.317Z,95.25
2022-10-15T01:16:07.925Z,94.87
2022-10-15T01:18:45.818Z,95.06
2022-10-15T01:21:24.051Z,95.06
2022-10-15T01:24:18.499Z,95.41
2022-10-15T01:27:03.120Z,94.99
2022-10-15T01:30:01.864Z,94.76
2022-10-15T01:32:34.759Z,94.83
2022-10-15T01:35:26.308Z,95.12
2022-10-15T01:38:33.084Z,94.85
2022-10-15T01:41:11.658Z,94.81
2022-10-15T01:43:46.781Z,95.01
2022-10-15T01:46:20.887Z,94.88
2022-10-15T01:48:49.061Z,95.13
2022-10-15T01:51:18.022Z,94.98
2022-10-15T01:53:46.154Z,95.05
2022-10-15T01:56:18.222Z,95.01
2022-10-15T01:58:47.117Z,95.35
2022-10-15T02:01:13.719Z,95.24
2022-10-15T02:03:47.152Z,94.88
2022-10-15T02:06:19.045Z,95.08
2022-10-15T02:09:13.142Z,95.17
2022-10-15T02:12:00.101Z,95.06
2022-10-15T02:14:37.761Z,94.97
2022-10-15T02:17:10.115Z,95.06
2022-10-15T02:20:00.789Z,94.89
2022-10-15T02:22:35.527Z,95.20
2022-10-15T02:25:09.107Z,94.86
2022-10-15T02:27:37.894Z,95.46
2022-10-15T02:30:08.162Z,95.24
2022-10-15T02:32:38.049Z,95.56
2022-10-15T02:35:07.375Z,95.56
2022-10-15T02:37:35.561Z,95.49
2022-10-15T02:40:02.023Z,95.35
2022-10-15T02:42:28.848Z,95.63
2022-10-15T02:44:55.261Z,95.74
2022-10-15T02:47:21.713Z,95.77
2022-10-15T02:49:48.140Z,95.98
2022-10-15T02:52:14.505Z,95.80
2022-10-15T02:54:40.901Z,95.79
2022-10-15T02:57:07.251Z,95.76
2022-10-15T02:59:33.685Z,95.77
2022-10-15T03:02:00.043Z,95.92
2022-10-15T03:04:26.498Z,95.45
2022-10-15T03:06:52.898Z,95.66
2022-10-15T03:09:19.392Z,95.49
2022-10-15T03:11:45.781Z,95.85
2022-10-15T03:14:12.544Z,95.95
2022-10-15T03:16:38.993Z,96.06
2022-10-15T03:19:07.920Z,95.87
2022-10-15T03:21:34.361Z,96.12
2022-10-15T03:24:00.787Z,96.25
2022-10-15T03:26:27.230Z,96.11
2022-10-15T03:28:53.703Z,96.39
2022-10-15T03:31:20.488Z,96.35
2022-10-15T03:33:46.868Z,95.96
2022-10-15T03:36:13.313Z,95.97
2022-10-15T03:38:39.666Z,96.03
2022-10-15T03:41:06.090Z,96.15
2022-10-15T03:43:32.445Z,96.20
2022-10-15T03:46:02.245Z,96.20
2022-10-15T03:48:29.077Z,96.38
2022-10-15T03:50:55.491Z,96.44
2022-10-15T03:53:21.922Z,96.49
2022-10-15T03:55:48.321Z,96.54
2022-10-15T03:58:14.972Z,96.23
2022-10-15T04:00:42.991Z,96.59
2022-10-15T04:03:09.525Z,96.44
2022-10-15T04:05:36.268Z,96.48
2022-10-15T04:08:03.602Z,96.42
2022-10-15T04:10:30.039Z,96.70
2022-10-15T04:12:56.402Z,96.70
2022-10-15T04:15:22.873Z,96.74
2022-10-15T04:17:49.298Z,96.70
2022-10-15T04:20:15.877Z,96.84
2022-10-15T04:22:42.262Z,96.78
2022-10-15T04:25:09.175Z,96.82
2022-10-15T04:27:35.569Z,96.90
2022-10-15T04:30:01.968Z,96.81
2022-10-15T04:32:28.351Z,96.84
2022-10-15T04:34:54.815Z,96.86
2022-10-15T04:37:21.369Z,96.90
2022-10-15T04:39:47.925Z,96.80
2022-10-15T04:42:14.511Z,96.64
2022-10-15T04:44:40.907Z,96.74
2022-10-15T04:47:07.299Z,96.94
2022-10-15T04:49:33.714Z,96.98
2022-10-15T04:52:00.100Z,97.08
2022-10-15T04:56:53.930Z,97.15
2022-10-15T04:59:20.355Z,97.06
2022-10-15T05:01:46.901Z,97.24
2022-10-15T05:04:13.798Z,97.11
2022-10-15T05:06:40.284Z,97.08
2022-10-15T05:09:06.688Z,97.24
2022-10-15T05:11:36.903Z,96.90
2022-10-15T05:14:03.841Z,97.17
2022-10-15T05:16:30.856Z,97.35
2022-10-15T05:19:03.766Z,97.27
2022-10-15T05:21:31.286Z,97.25
2022-10-15T05:23:58.655Z,97.15
2022-10-15T05:26:27.532Z,97.11
2022-10-15T05:28:56.678Z,97.07
2022-10-15T05:31:24.836Z,97.19
2022-10-15T05:33:53.326Z,97.15
2022-10-15T05:36:23.966Z,97.23
2022-10-15T05:38:55.793Z,97.18
2022-10-15T05:41:23.066Z,96.97
2022-10-15T05:43:50.711Z,97.22
2022-10-15T05:46:18.491Z,97.56
2022-10-15T05:48:57.933Z,97.42
2022-10-15T05:51:26.270Z,97.48
2022-10-15T05:53:53.940Z,97.58
2022-10-15T05:56:20.872Z,97.60
2022-10-15T05:58:47.665Z,97.48
2022-10-15T06:01:14.702Z,96.90
2022-10-15T06:03:42.377Z,97.33
2022-10-15T06:06:17.475Z,97.36
2022-10-15T06:08:44.698Z,97.43
2022-10-15T06:11:11.129Z,97.40
2022-10-15T06:13:41.816Z,97.30
2022-10-15T06:16:09.247Z,97.12
2022-10-15T06:18:36.888Z,97.33
2022-10-15T06:21:03.366Z,97.23
2022-10-15T06:23:29.798Z,97.11
2022-10-15T06:25:56.325Z,96.84
2022-10-15T06:28:22.742Z,96.90
2022-10-15T06:30:49.119Z,96.73
2022-10-15T06:33:16.958Z,96.67
2022-10-15T06:35:43.569Z,96.92
2022-10-15T06:38:10.091Z,96.51
2022-10-15T06:40:37.697Z,96.49
2022-10-15T06:43:08.498Z,96.89
2022-10-15T06:45:37.363Z,96.61
2022-10-15T06:48:05.432Z,96.82
2022-10-15T06:50:33.183Z,96.99
2022-10-15T06:55:30.938Z,96.78
2022-10-15T06:57:58.115Z,96.83
2022-10-15T07:00:25.785Z,96.78
2022-10-15T07:02:52.348Z,96.57
2022-10-15T07:05:19.245Z,96.50
2022-10-15T07:07:55.802Z,96.14
2022-10-15T07:10:23.648Z,96.08
2022-10-15T07:12:50.140Z,95.92
2022-10-15T07:15:17.466Z,95.45
2022-10-15T07:17:51.568Z,95.67
2022-10-15T07:20:22.010Z,95.71
2022-10-15T07:22:51.005Z,95.42
2022-10-15T07:25:17.646Z,95.28
2022-10-15T07:27:44.108Z,94.89
2022-10-15T07:30:10.863Z,94.43
2022-10-15T07:32:37.359Z,93.84
2022-10-15T07:35:05.061Z,93.25
2022-10-15T07:37:31.683Z,92.52
2022-10-15T07:39:58.141Z,92.54
2022-10-15T07:42:24.509Z,92.27
2022-10-15T07:44:50.876Z,92.54
2022-10-15T07:47:17.359Z,91.91
2022-10-15T07:49:43.717Z,91.59
2022-10-15T07:52:10.210Z,90.51
2022-10-15T07:54:37.200Z,91.03
2022-10-15T07:57:03.825Z,90.70
2022-10-15T07:59:30.263Z,90.94
2022-10-15T08:01:56.675Z,91.22
2022-10-15T08:04:23.213Z,91.05
2022-10-15T08:06:49.945Z,90.74
2022-10-15T08:09:17.028Z,89.04
2022-10-15T08:11:43.448Z,88.98
2022-10-15T08:14:10.072Z,87.61
2022-10-15T08:16:36.655Z,85.54
2022-10-15T08:19:03.162Z,85.04
2022-10-15T08:21:30.035Z,84.60
2022-10-15T08:23:56.478Z,84.32
2022-10-15T08:26:23.047Z,85.14
2022-10-15T08:28:51.267Z,85.81
2022-10-15T08:31:19.166Z,87.37
2022-10-15T08:33:46.455Z,87.94
2022-10-15T08:36:12.925Z,87.83
2022-10-15T08:38:39.267Z,88.52
2022-10-15T08:41:19.773Z,88.20
2022-10-15T08:43:47.309Z,88.36
2022-10-15T08:46:22.598Z,88.61
2022-10-15T08:48:53.806Z,88.35
2022-10-15T08:51:42.277Z,88.13
2022-10-15T08:54:15.566Z,86.18
2022-10-15T08:56:46.605Z,85.97
2022-10-15T08:59:42.781Z,85.08
2022-10-15T09:02:17.178Z,85.62
2022-10-15T09:05:01.290Z,84.83
2022-10-15T09:07:33.524Z,84.64
2022-10-15T09:10:28.443Z,84.99
2022-10-15T09:13:16.383Z,85.30
2022-10-15T09:16:09.466Z,85.21
2022-10-15T09:18:37.958Z,85.56
2022-10-15T09:21:05.662Z,84.37
2022-10-15T09:23:34.120Z,83.95
2022-10-15T09:26:12.742Z,83.62
2022-10-15T09:28:59.462Z,83.39
2022-10-15T09:31:33.012Z,83.55
2022-10-15T09:34:03.881Z,84.54
2022-10-15T09:36:55.030Z,84.75
2022-10-15T09:39:27.153Z,85.89
2022-10-15T09:42:16.414Z,86.35
2022-10-15T09:44:45.855Z,85.55
2022-10-15T09:47:31.117Z,85.14
2022-10-15T09:49:57.572Z,84.16
2022-10-15T09:52:53.884Z,83.58
2022-10-15T09:55:29.433Z,81.93
2022-10-15T09:58:01.214Z,82.47
2022-10-15T10:00:47.489Z,82.26
2022-10-15T10:03:15.550Z,83.14
2022-10-15T10:05:43.193Z,82.66
2022-10-15T10:08:22.799Z,82.31
2022-10-15T10:10:57.557Z,82.83
2022-10-15T10:13:26.067Z,82.79
2022-10-15T10:15:58.403Z,83.37
2022-10-15T10:18:26.209Z,84.93
2022-10-15T10:21:01.714Z,85.76
2022-10-15T10:23:37.208Z,86.82
2022-10-15T10:26:10.229Z,86.77
2022-10-15T10:28:43.413Z,87.94
2022-10-15T10:31:11.526Z,88.37
2022-10-15T10:33:43.439Z,88.00
2022-10-15T10:36:33.825Z,89.89
2022-10-15T10:39:15.774Z,90.13
2022-10-15T10:41:50.711Z,89.98
2022-10-15T10:44:31.355Z,90.34
2022-10-15T10:47:24.269Z,90.75
2022-10-15T10:49:58.035Z,90.83
2022-10-15T10:52:37.428Z,90.95
2022-10-15T10:55:25.442Z,90.35
2022-10-15T10:57:55.207Z,90.97
2022-10-15T11:00:35.898Z,89.75
2022-10-15T11:03:02.525Z,89.82
2022-10-15T11:05:31.845Z,90.00
2022-10-15T11:08:24.665Z,89.77
2022-10-15T11:11:12.565Z,90.84
2022-10-15T11:14:23.358Z,90.56
2022-10-15T11:17:01.126Z,91.35
2022-10-15T11:23:00.442Z,90.87
2022-10-15T11:25:33.345Z,91.91
2022-10-15T11:28:05.957Z,92.12
2022-10-15T11:30:35.351Z,91.56
2022-10-15T11:33:20.101Z,91.83
2022-10-15T11:35:54.958Z,92.52
2022-10-15T11:38:30.757Z,92.13
2022-10-15T11:40:57.090Z,92.25
2022-10-15T11:43:45.056Z,92.13
2022-10-15T11:46:37.462Z,91.89
2022-10-15T11:49:28.628Z,91.87
2022-10-15T11:52:13.136Z,91.65
2022-10-15T11:54:48.574Z,91.38
2022-10-15T11:57:19.010Z,91.22
2022-10-15T12:00:19.871Z,91.23
2022-10-15T12:02:49.351Z,91.80
2022-10-15T12:05:21.216Z,91.33
2022-10-15T12:07:49.656Z,90.89
2022-10-15T12:10:34.498Z,90.20
2022-10-15T12:13:14.198Z,89.19
2022-10-15T12:16:18.173Z,88.84
2022-10-15T12:19:10.265Z,89.14
2022-10-15T12:21:40.070Z,88.08
2022-10-15T12:24:38.511Z,87.26
2022-10-15T12:27:20.309Z,87.79
2022-10-15T12:29:53.083Z,87.81
2022-10-15T12:32:28.884Z,86.81
2022-10-15T12:35:01.113Z,87.32
2022-10-15T12:37:29.930Z,87.70
2022-10-15T12:40:04.252Z,87.57
2022-10-15T12:42:35.142Z,86.39
2022-10-15T12:45:05.445Z,87.01
2022-10-15T12:47:56.673Z,85.96
2022-10-15T12:50:31.202Z,86.94
2022-10-15T12:53:03.533Z,86.57
2022-10-15T12:55:34.050Z,85.15
2022-10-15T12:58:26.166Z,83.85
2022-10-15T13:00:52.690Z,82.09
2022-10-15T13:03:43.265Z,82.81
2022-10-15T13:06:22.166Z,81.52
2022-10-15T13:08:54.066Z,81.02
2022-10-15T13:11:29.079Z,81.07
2022-10-15T13:14:28.768Z,81.00
2022-10-15T13:16:56.627Z,81.44
2022-10-15T13:19:39.214Z,80.52
2022-10-15T13:22:19.901Z,80.41
2022-10-15T13:24:46.386Z,77.12
2022-10-15T13:27:50.447Z,76.54
2022-10-15T13:30:17.387Z,76.30
2022-10-15T13:32:49.959Z,75.44
2022-10-15T13:35:24.344Z,75.13
2022-10-15T13:37:50.704Z,76.77
2022-10-15T13:40:26.118Z,76.51
2022-10-15T13:43:02.596Z,77.50
2022-10-15T13:45:30.128Z,77.84
2022-10-15T13:47:59.404Z,78.67
2022-10-15T13:50:36.339Z,79.84
2022-10-15T13:53:31.822Z,79.24
2022-10-15T13:55:59.589Z,79.79
2022-10-15T13:58:27.556Z,79.45
2022-10-15T14:01:14.968Z,79.85
2022-10-15T14:03:54.064Z,79.93
2022-10-15T14:06:22.009Z,80.70
2022-10-15T14:08:51.055Z,81.21
2022-10-15T14:11:18.867Z,81.55
2022-10-15T14:13:53.061Z,81.42
2022-10-15T14:16:43.370Z,81.82
2022-10-15T14:19:11.942Z,81.87
2022-10-15T14:21:44.661Z,81.50
2022-10-15T14:24:21.486Z,82.55
2022-10-15T14:26:48.687Z,81.55
2022-10-15T14:29:24.869Z,81.03
2022-10-15T14:31:51.415Z,81.63
2022-10-15T14:34:34.606Z,81.40
2022-10-15T14:37:03.191Z,81.72
2022-10-15T14:39:34.929Z,82.27
2022-10-15T14:42:04.507Z,82.35
2022-10-15T14:44:41.816Z,81.36
2022-10-15T14:47:19.459Z,81.68
2022-10-15T14:49:46.128Z,79.92
2022-10-15T14:52:17.187Z,81.52
2022-10-15T14:54:51.052Z,80.61
2022-10-15T14:57:28.225Z,80.52
2022-10-15T14:59:56.940Z,80.32
2022-10-15T15:02:27.284Z,81.12
2022-10-15T15:05:11.080Z,81.12
2022-10-15T15:07:38.282Z,81.90
2022-10-15T15:10:06.251Z,82.34
2022-10-15T15:12:33.818Z,82.47
2022-10-15T15:15:00.771Z,82.64
2022-10-15T15:17:29.218Z,84.49
2022-10-15T15:19:57.816Z,86.41
2022-10-15T15:22:30.851Z,87.21
2022-10-15T15:25:00.800Z,87.35
2022-10-15T15:27:30.277Z,87.59
2022-10-15T15:29:57.676Z,88.46
2022-10-15T15:32:25.159Z,87.92
2022-10-15T15:34:53.868Z,88.18
2022-10-15T15:37:22.910Z,86.78
2022-10-15T15:39:50.010Z,85.82
2022-10-15T15:42:19.609Z,86.02
2022-10-15T15:44:46.751Z,86.54
2022-10-15T15:47:13.925Z,86.36
2022-10-15T15:49:40.947Z,85.77
2022-10-15T15:52:13.573Z,85.89
2022-10-15T15:54:40.766Z,86.48
2022-10-15T15:57:07.273Z,86.66
2022-10-15T15:59:33.706Z,86.30
2022-10-15T16:02:00.255Z,86.74
2022-10-15T16:04:26.757Z,87.24
2022-10-15T16:06:53.186Z,87.40
2022-10-15T16:09:22.460Z,87.22
2022-10-15T16:11:50.224Z,87.60
2022-10-15T16:14:16.710Z,87.54
2022-10-15T16:16:43.817Z,88.14
2022-10-15T16:19:10.175Z,88.14
2022-10-15T16:21:36.683Z,88.56
2022-10-15T16:24:03.214Z,88.55
2022-10-15T16:26:29.668Z,88.28
2022-10-15T16:29:12.569Z,89.12
2022-10-15T16:31:38.998Z,88.90
2022-10-15T16:34:07.912Z,88.93
2022-10-15T16:36:34.374Z,88.82
2022-10-15T16:39:00.852Z,89.08
2022-10-15T16:41:27.325Z,88.91
2022-10-15T16:43:54.111Z,89.07
2022-10-15T16:46:21.258Z,88.71
2022-10-15T16:48:54.069Z,88.20
2022-10-15T16:51:21.987Z,88.78
2022-10-15T16:53:49.496Z,88.71
2022-10-15T16:56:24.954Z,88.97
2022-10-15T16:58:51.452Z,89.24
2022-10-15T17:01:20.843Z,89.61
2022-10-15T17:03:47.692Z,88.94
2022-10-15T17:06:17.361Z,88.82
2022-10-15T17:08:47.180Z,89.24
2022-10-15T17:11:22.720Z,89.21
2022-10-15T17:13:50.793Z,88.96
2022-10-15T17:16:20.658Z,89.02
2022-10-15T17:18:47.869Z,89.31
2022-10-15T17:21:17.719Z,89.37
2022-10-15T17:23:44.665Z,89.79
2022-10-15T17:26:14.167Z,89.77
2022-10-15T17:28:40.729Z,89.60
2022-10-15T17:31:09.645Z,90.13
2022-10-15T17:33:37.624Z,89.93
2022-10-15T17:36:10.126Z,90.12
2022-10-15T17:38:36.857Z,89.67
2022-10-15T17:41:12.786Z,89.51
2022-10-15T17:43:40.386Z,89.42
2022-10-15T17:46:08.845Z,88.92
2022-10-15T17:48:37.974Z,89.07
2022-10-15T17:51:05.946Z,88.44
2022-10-15T17:53:32.422Z,88.36
2022-10-15T17:55:59.455Z,88.62
2022-10-15T17:58:26.373Z,87.52
2022-10-15T18:00:57.781Z,87.89
2022-10-15T18:03:25.495Z,86.88
2022-10-15T18:05:51.967Z,86.77
2022-10-15T18:08:18.575Z,87.25
2022-10-15T18:10:50.596Z,87.30
2022-10-15T18:13:17.483Z,87.13
2022-10-15T18:15:46.013Z,86.76
2022-10-15T18:18:13.248Z,87.07
2022-10-15T18:20:41.429Z,87.22
2022-10-15T18:23:08.371Z,87.11
2022-10-15T18:25:34.946Z,86.93
2022-10-15T18:28:01.632Z,86.41
2022-10-15T18:30:28.141Z,86.65
2022-10-15T18:32:57.331Z,87.83
2022-10-15T18:35:25.273Z,88.19
2022-10-15T18:37:51.764Z,87.31
2022-10-15T18:40:18.214Z,87.40
2022-10-15T18:42:47.694Z,87.80
2022-10-15T18:45:14.551Z,89.00
2022-10-15T18:47:40.959Z,89.93
2022-10-15T18:50:08.297Z,90.14
2022-10-15T18:52:39.818Z,90.66
2022-10-15T18:55:07.412Z,89.91
2022-10-15T18:57:34.805Z,90.02
2022-10-15T19:00:01.252Z,89.58
2022-10-15T19:02:28.103Z,89.66
2022-10-15T19:04:54.660Z,89.30
2022-10-15T19:07:21.014Z,88.35
2022-10-15T19:09:47.413Z,88.73
2022-10-15T19:12:13.801Z,88.60
2022-10-15T19:14:40.233Z,89.04
2022-10-15T19:17:06.673Z,89.52
2022-10-15T19:19:33.153Z,89.41
2022-10-15T19:21:59.607Z,89.56
2022-10-15T19:24:26.294Z,90.10
2022-10-15T19:26:53.123Z,90.33
2022-10-15T19:29:20.230Z,89.88
2022-10-15T19:31:48.039Z,89.81
2022-10-15T19:34:14.873Z,89.59
2022-10-15T19:36:47.465Z,89.03
2022-10-15T19:39:17.426Z,89.65
2022-10-15T19:41:45.370Z,90.49
2022-10-15T19:44:14.655Z,90.96
2022-10-15T19:46:41.786Z,91.54
2022-10-15T19:49:11.620Z,91.65
2022-10-15T19:51:38.563Z,91.94
2022-10-15T19:54:05.075Z,92.07
2022-10-15T19:56:32.913Z,92.20
2022-10-15T19:59:02.548Z,92.54
2022-10-15T20:01:30.407Z,92.60
2022-10-15T20:04:05.882Z,92.80
2022-10-15T20:06:34.650Z,92.72
2022-10-15T20:09:02.257Z,92.73
2022-10-15T20:11:29.996Z,93.12
2022-10-15T20:13:58.269Z,92.98
2022-10-15T20:16:26.490Z,92.93
2022-10-15T20:18:57.035Z,93.57
2022-10-15T20:21:23.973Z,93.27
2022-10-15T20:23:50.622Z,93.55
2022-10-15T20:26:18.660Z,93.23
2022-10-15T20:28:46.704Z,93.12
2022-10-15T20:31:16.668Z,93.28
2022-10-15T20:33:44.180Z,93.44
2022-10-15T20:36:14.756Z,93.56
2022-10-15T20:38:42.566Z,93.29
2022-10-15T20:41:14.605Z,93.62
2022-10-15T20:43:43.085Z,93.44
2022-10-15T20:46:18.347Z,93.60
2022-10-15T20:48:46.208Z,93.55
2022-10-15T20:51:16.065Z,93.50
2022-10-15T20:53:43.614Z,93.89
2022-10-15T20:56:10.118Z,93.46
2022-10-15T20:58:36.552Z,93.58
2022-10-15T21:01:03.785Z,93.48
2022-10-15T21:03:31.075Z,93.37
2022-10-15T21:05:57.563Z,93.49
2022-10-15T21:08:24.688Z,93.72
2022-10-15T21:10:51.117Z,93.84
2022-10-15T21:13:17.524Z,93.70
2022-10-15T21:15:43.947Z,93.84
2022-10-15T21:18:10.477Z,94.01
2022-10-15T21:20:36.930Z,93.90
2022-10-15T21:23:03.301Z,93.84
2022-10-15T21:25:30.087Z,93.81
2022-10-15T21:27:56.523Z,93.79
2022-10-15T21:30:22.890Z,93.82
2022-10-15T21:32:49.313Z,94.26
2022-10-15T21:35:15.731Z,94.12
2022-10-15T21:37:42.119Z,93.80
2022-10-15T21:40:09.337Z,94.25
2022-10-15T21:42:35.713Z,93.87
2022-10-15T21:45:02.196Z,94.21
2022-10-15T21:47:29.077Z,93.90
2022-10-15T21:49:55.694Z,94.06
2022-10-15T21:52:22.185Z,93.91
2022-10-15T21:54:48.604Z,94.25
2022-10-15T21:57:15.154Z,94.02
2022-10-15T21:59:41.575Z,94.07
2022-10-15T22:02:08.062Z,94.15
2022-10-15T22:04:35.266Z,94.44
2022-10-15T22:07:02.123Z,94.39
2022-10-15T22:09:28.979Z,94.15
2022-10-15T22:11:55.391Z,94.49
2022-10-15T22:14:22.019Z,94.55
2022-10-15T22:16:48.553Z,94.20
2022-10-15T22:19:16.262Z,94.21
2022-10-15T22:21:43.192Z,94.49
2022-10-15T22:24:13.634Z,94.36
2022-10-15T22:26:43.246Z,94.26
2022-10-15T22:29:35.614Z,94.11
2022-10-15T22:32:02.126Z,94.04
2022-10-15T22:34:28.613Z,94.25
2022-10-15T22:36:55.082Z,94.28
2022-10-15T22:39:21.560Z,93.85
2022-10-15T22:41:48.632Z,94.57
2022-10-15T22:44:20.086Z,94.13
2022-10-15T22:46:49.218Z,94.32
2022-10-15T22:49:17.606Z,94.29
2022-10-15T22:51:44.175Z,94.14
2022-10-15T22:54:10.930Z,94.00
2022-10-15T22:56:37.834Z,94.10
2022-10-15T22:59:05.142Z,94.28
2022-10-15T23:01:33.054Z,94.19
2022-10-15T23:04:05.495Z,94.08
2022-10-15T23:06:34.510Z,94.35
2022-10-15T23:09:01.471Z,94.02
2022-10-15T23:11:34.176Z,94.28
2022-10-15T23:14:03.053Z,94.11
2022-10-15T23:16:35.435Z,94.21
2022-10-15T23:19:07.056Z,94.29
2022-10-15T23:21:36.985Z,94.16
2022-10-15T23:24:04.735Z,94.01
2022-10-15T23:26:31.208Z,94.50
2022-10-15T23:28:59.511Z,94.47
2022-10-15T23:31:28.584Z,94.36
2022-10-15T23:33:56.434Z,94.44
2022-10-15T23:36:24.209Z,94.40
2022-10-15T23:38:53.052Z,94.19
2022-10-15T23:41:19.796Z,94.52
2022-10-15T23:43:46.528Z,94.45
2022-10-15T23:46:14.666Z,94.67
2022-10-15T23:48:41.245Z,94.58
2022-10-15T23:51:17.526Z,94.79
2022-10-15T23:56:19.698Z,94.80
2022-10-15T23:59:02.135Z,94.53
